Time;durP1;ratioP1;P1;durP2;ratioP2;P2;SDS_P1;SDS_P2;PMS_P1;PMS_P2;Temp;Humidity;BMP_temperature;BMP_pressure;BME280_temperature;BME280_humidity;BME280_pressure;Samples;Min_cycle;Max_cycle;Signal;HPM_P1;HPM_P2
2021/03/11 00:01:53;;;;;;;0.25;0.25;;;14.30;66.60;;;;;;4195067;28;20058;-44
2021/03/11 00:04:15;;;;;;;0.08;0.08;;;14.40;66.60;;;;;;4195293;28;20060;-47
2021/03/11 00:06:35;;;;;;;0.95;0.95;;;14.30;66.80;;;;;;4195186;28;20060;-44
2021/03/11 00:08:56;;;;;;;0.00;0.00;;;14.30;66.80;;;;;;4194915;28;20053;-44
2021/03/11 00:11:17;;;;;;;0.22;0.22;;;14.30;66.80;;;;;;4195124;28;20060;-45
2021/03/11 00:13:38;;;;;;;0.20;0.20;;;14.30;66.80;;;;;;4196917;28;20067;-43
2021/03/11 00:16:01;;;;;;;0.20;0.20;;;14.30;67.00;;;;;;4198154;28;20072;-43
2021/03/11 00:18:22;;;;;;;0.38;0.38;;;14.30;67.00;;;;;;4197750;28;20053;-44
2021/03/11 00:20:44;;;;;;;1.75;1.65;;;14.30;67.10;;;;;;4198028;28;20056;-45
2021/03/11 00:23:12;;;;;;;0.10;0.05;;;14.30;67.20;;;;;;4187759;28;20076;-44
2021/03/11 00:25:34;;;;;;;0.85;0.85;;;14.20;67.10;;;;;;4197867;28;20051;-45
2021/03/11 00:27:55;;;;;;;0.45;0.25;;;14.20;67.20;;;;;;4197475;28;20063;-43
2021/03/11 00:30:18;;;;;;;0.00;0.00;;;14.20;67.20;;;;;;4197678;28;20178;-43
2021/03/11 00:32:39;;;;;;;0.73;0.73;;;14.20;67.40;;;;;;4197730;28;20056;-44
2021/03/11 00:35:00;;;;;;;0.45;0.45;;;14.20;67.40;;;;;;4197735;28;20078;-45
2021/03/11 00:37:22;;;;;;;0.00;0.00;;;14.20;67.40;;;;;;4197770;28;20475;-43
2021/03/11 00:39:43;;;;;;;0.22;0.22;;;14.20;67.50;;;;;;4197403;28;20076;-47
2021/03/11 00:42:08;;;;;;;0.20;0.20;;;14.10;67.50;;;;;;4197359;28;20312;-44
2021/03/11 00:44:29;;;;;;;0.20;0.20;;;14.20;67.70;;;;;;4197364;28;20121;-43
2021/03/11 00:46:50;;;;;;;0.00;0.00;;;14.10;67.60;;;;;;4197649;28;20052;-44
2021/03/11 00:49:11;;;;;;;0.52;0.52;;;14.10;67.70;;;;;;4197620;28;20503;-45
2021/03/11 00:51:35;;;;;;;0.00;0.00;;;14.10;67.70;;;;;;4197334;28;20052;-44
2021/03/11 00:53:57;;;;;;;0.75;0.75;;;14.10;67.90;;;;;;4197346;28;20503;-47
2021/03/11 00:56:18;;;;;;;0.20;0.20;;;14.10;67.90;;;;;;4193824;28;20418;-44
2021/03/11 00:58:39;;;;;;;7.88;1.75;;;14.10;67.90;;;;;;4189016;28;20052;-44
2021/03/11 01:01:00;;;;;;;0.20;0.20;;;14.00;67.90;;;;;;4197489;28;20155;-46
2021/03/11 01:03:35;;;;;;;0.47;0.47;;;14.10;68.10;;;;;;4196288;28;20044;-44
2021/03/11 01:05:56;;;;;;;;;;;14.00;68.10;;;;;;4196760;28;20052;-47
2021/03/11 01:08:25;;;;;;;0.00;0.00;;;14.00;68.00;;;;;;4179760;28;19921;-44
2021/03/11 01:10:47;;;;;;;0.00;0.00;;;14.00;68.10;;;;;;4180773;28;20057;-46
2021/03/11 01:13:08;;;;;;;0.68;0.68;;;14.00;68.20;;;;;;4184341;28;20057;-47
2021/03/11 01:15:32;;;;;;;0.08;0.08;;;14.00;68.30;;;;;;4197159;28;20082;-45
2021/03/11 01:17:53;;;;;;;0.00;0.00;;;14.00;68.40;;;;;;4196846;28;20048;-53
2021/03/11 01:20:15;;;;;;;0.00;0.00;;;14.00;68.40;;;;;;4197160;28;20461;-45
2021/03/11 01:22:36;;;;;;;0.10;0.10;;;14.00;68.40;;;;;;4197018;28;20053;-47
2021/03/11 01:24:57;;;;;;;0.10;0.10;;;14.00;69.40;;;;;;4179328;28;20049;-45
2021/03/11 01:27:19;;;;;;;0.03;0.03;;;13.90;68.40;;;;;;4180540;28;20118;-44
2021/03/11 01:29:40;;;;;;;0.30;0.30;;;13.90;68.50;;;;;;4180486;28;20048;-49
2021/03/11 01:32:01;;;;;;;0.30;0.30;;;13.90;68.60;;;;;;4190982;28;20127;-47
2021/03/11 01:34:22;;;;;;;0.08;0.08;;;13.90;68.70;;;;;;4196951;28;20056;-44
2021/03/11 01:36:43;;;;;;;0.77;0.52;;;13.90;68.60;;;;;;4196632;28;20102;-46
2021/03/11 01:39:05;;;;;;;0.00;0.00;;;13.90;68.80;;;;;;4196825;28;20060;-44
2021/03/11 01:41:26;;;;;;;1.05;1.05;;;13.90;68.70;;;;;;4196636;28;20439;-45
2021/03/11 01:43:48;;;;;;;0.00;0.00;;;13.90;68.70;;;;;;4196535;28;20131;-45
2021/03/11 01:46:08;;;;;;;0.13;0.13;;;13.90;68.80;;;;;;4196592;28;20090;-43
2021/03/11 01:48:32;;;;;;;;;;;13.90;68.80;;;;;;4196979;28;20135;-47
2021/03/11 01:50:53;;;;;;;0.10;0.10;;;13.90;68.70;;;;;;4196384;28;19977;-45
2021/03/11 01:53:14;;;;;;;0.00;0.00;;;13.90;68.80;;;;;;4196135;28;20691;-44
2021/03/11 01:55:35;;;;;;;0.10;0.10;;;13.90;68.90;;;;;;4196467;28;20102;-45
2021/03/11 01:57:56;;;;;;;0.30;0.30;;;13.90;68.90;;;;;;4196232;28;20045;-46
2021/03/11 02:00:18;;;;;;;0.00;0.00;;;13.80;68.90;;;;;;4196395;28;20056;-44
2021/03/11 02:02:41;;;;;;;0.22;0.22;;;13.90;69.00;;;;;;4196496;28;20102;-44
2021/03/11 02:05:04;;;;;;;1.27;0.90;;;13.80;69.10;;;;;;4196031;28;20055;-44
2021/03/11 02:07:25;;;;;;;0.82;0.82;;;13.80;69.10;;;;;;4196323;28;20080;-44
2021/03/11 02:09:46;;;;;;;0.20;0.20;;;13.80;69.10;;;;;;4195794;28;20079;-44
2021/03/11 02:12:16;;;;;;;0.57;0.30;;;13.80;69.10;;;;;;4195908;28;20049;-43
2021/03/11 02:14:51;;;;;;;0.25;0.25;;;13.80;69.20;;;;;;4196212;28;20566;-44
2021/03/11 02:17:17;;;;;;;0.38;0.38;;;13.80;69.00;;;;;;4196256;28;20052;-44
2021/03/11 02:20:08;;;;;;;0.00;0.00;;;13.80;69.10;;;;;;4196211;28;20060;-44
2021/03/11 02:22:42;;;;;;;0.57;0.57;;;13.80;69.40;;;;;;4195778;28;20048;-44
2021/03/11 02:25:13;;;;;;;0.00;0.00;;;13.80;69.30;;;;;;4195772;28;20059;-43
2021/03/11 02:28:06;;;;;;;0.08;0.08;;;13.80;69.30;;;;;;4195791;28;20155;-43
2021/03/11 02:30:29;;;;;;;0.43;0.35;;;13.80;69.40;;;;;;4179416;28;20056;-43
2021/03/11 02:32:51;;;;;;;0.05;0.05;;;13.70;69.40;;;;;;4179346;28;20048;-43
2021/03/11 02:35:14;;;;;;;0.10;0.10;;;13.70;69.50;;;;;;4191511;28;20114;-43
2021/03/11 02:37:39;;;;;;;0.00;0.00;;;13.70;69.50;;;;;;4195956;28;20341;-43
2021/03/11 02:40:04;;;;;;;0.13;0.13;;;13.70;69.60;;;;;;4195888;28;20080;-44
2021/03/11 02:42:28;;;;;;;0.22;0.22;;;13.70;69.60;;;;;;4195298;28;20052;-46
2021/03/11 02:44:51;;;;;;;3.83;0.57;;;13.70;69.70;;;;;;4194741;28;20056;-45
2021/03/11 02:47:13;;;;;;;0.00;0.00;;;13.70;69.70;;;;;;4195533;28;20422;-44
2021/03/11 02:49:35;;;;;;;1.17;1.17;;;13.70;69.70;;;;;;4195624;28;20494;-44
2021/03/11 02:51:56;;;;;;;0.20;0.20;;;13.70;69.80;;;;;;4195690;28;20506;-43
2021/03/11 02:54:19;;;;;;;1.90;0.82;;;13.70;70.00;;;;;;4195477;28;20067;-44
2021/03/11 02:56:53;;;;;;;0.00;0.00;;;13.60;69.70;;;;;;4195716;28;20097;-46
2021/03/11 02:59:15;;;;;;;0.00;0.00;;;13.70;69.70;;;;;;4195695;28;20060;-49
2021/03/11 03:01:39;;;;;;;0.00;0.00;;;13.70;69.80;;;;;;4195528;28;20418;-44
2021/03/11 03:04:01;;;;;;;1.92;0.65;;;13.70;69.70;;;;;;4195405;28;20477;-43
2021/03/11 03:06:33;;;;;;;0.00;0.00;;;13.70;69.70;;;;;;4195363;28;20063;-44
2021/03/11 03:08:55;;;;;;;0.00;0.00;;;13.70;69.60;;;;;;4194214;28;20052;-44
2021/03/11 03:11:17;;;;;;;0.52;0.52;;;13.70;69.70;;;;;;4195520;28;20052;-44
2021/03/11 03:13:40;;;;;;;0.50;0.50;;;13.70;69.70;;;;;;4191732;28;20084;-43
2021/03/11 03:16:02;;;;;;;0.00;0.00;;;13.70;69.90;;;;;;4179022;28;20877;-46
2021/03/11 03:18:26;;;;;;;0.00;0.00;;;13.70;70.00;;;;;;4179016;28;20475;-45
2021/03/11 03:20:48;;;;;;;1.30;0.63;;;13.70;70.10;;;;;;4184371;28;20140;-44
2021/03/11 03:23:09;;;;;;;0.00;0.00;;;13.60;70.10;;;;;;4195510;28;20059;-44
2021/03/11 03:25:38;;;;;;;0.00;0.00;;;13.60;70.20;;;;;;4195339;28;20435;-44
2021/03/11 03:27:58;;;;;;;0.00;0.00;;;13.60;70.30;;;;;;4195040;28;20052;-44
2021/03/11 03:30:20;;;;;;;0.00;0.00;;;13.60;70.40;;;;;;4195649;28;20090;-43
2021/03/11 03:32:41;;;;;;;0.10;0.10;;;13.60;70.40;;;;;;4178934;28;20078;-43
2021/03/11 03:35:03;;;;;;;0.00;0.00;;;13.60;70.40;;;;;;4178756;28;20056;-43
2021/03/11 03:37:25;;;;;;;0.00;0.00;;;13.60;70.50;;;;;;4178964;28;20053;-43
2021/03/11 03:39:46;;;;;;;0.00;0.00;;;13.60;70.50;;;;;;4189745;28;20478;-43
2021/03/11 03:42:10;;;;;;;0.30;0.30;;;13.60;70.60;;;;;;4179097;28;20056;-44
2021/03/11 03:44:36;;;;;;;0.00;0.00;;;13.60;70.60;;;;;;4195543;28;20470;-43
2021/03/11 03:46:57;;;;;;;0.65;0.57;;;13.50;70.60;;;;;;4195347;28;20552;-44
2021/03/11 03:49:19;;;;;;;0.00;0.00;;;13.50;70.70;;;;;;4197232;28;20808;-44
2021/03/11 03:51:43;;;;;;;;;;;13.50;70.70;;;;;;4198916;28;20109;-47
2021/03/11 03:54:09;;;;;;;0.00;0.00;;;13.50;70.80;;;;;;4198398;28;19924;-50
2021/03/11 03:56:35;;;;;;;0.00;0.00;;;13.50;70.90;;;;;;4198450;28;20048;-48
2021/03/11 03:59:04;;;;;;;0.00;0.00;;;13.50;70.90;;;;;;4198027;28;20560;-45
2021/03/11 04:01:28;;;;;;;0.20;0.20;;;13.50;71.10;;;;;;4198260;28;20057;-43
2021/03/11 04:03:51;;;;;;;0.10;0.10;;;13.50;71.00;;;;;;4198297;28;20114;-44
2021/03/11 04:06:14;;;;;;;0.00;0.00;;;13.50;71.00;;;;;;4198308;28;20586;-43
2021/03/11 04:08:35;;;;;;;2.10;1.10;;;13.50;71.10;;;;;;4197742;28;20044;-45
2021/03/11 04:10:57;;;;;;;0.00;0.00;;;13.50;71.10;;;;;;4198130;28;20579;-43
2021/03/11 04:13:19;;;;;;;0.35;0.35;;;13.50;70.90;;;;;;4197699;28;20149;-43
2021/03/11 04:15:40;;;;;;;0.00;0.00;;;13.50;71.20;;;;;;4198099;28;20499;-43
2021/03/11 04:18:01;;;;;;;0.00;0.00;;;13.50;71.10;;;;;;4198049;28;20064;-44
2021/03/11 04:20:23;;;;;;;0.00;0.00;;;13.50;71.10;;;;;;4197557;28;20091;-43
2021/03/11 04:22:44;;;;;;;;;;;13.50;71.10;;;;;;4198034;28;20463;-46
2021/03/11 04:25:07;;;;;;;0.63;0.63;;;13.50;71.30;;;;;;4198033;28;20010;-43
2021/03/11 04:27:29;;;;;;;0.30;0.30;;;13.50;71.40;;;;;;4197558;28;20165;-44
2021/03/11 04:29:51;;;;;;;0.00;0.00;;;13.50;71.50;;;;;;4197937;28;20056;-44
2021/03/11 04:32:12;;;;;;;0.08;0.08;;;13.40;71.50;;;;;;4197730;28;20495;-43
2021/03/11 04:34:34;;;;;;;0.30;0.30;;;13.40;71.30;;;;;;4197598;28;20105;-43
2021/03/11 04:36:56;;;;;;;0.00;0.00;;;13.40;71.50;;;;;;4197986;28;20064;-47
2021/03/11 04:39:19;;;;;;;0.03;0.03;;;13.40;71.40;;;;;;4190999;28;20414;-45
2021/03/11 04:41:40;;;;;;;0.00;0.00;;;13.40;71.40;;;;;;4197801;28;20563;-43
2021/03/11 04:44:03;;;;;;;0.00;0.00;;;13.40;71.60;;;;;;4197709;28;20128;-46
2021/03/11 04:46:28;;;;;;;0.00;0.00;;;13.50;71.70;;;;;;4196645;28;20044;-43
2021/03/11 04:48:50;;;;;;;0.00;0.00;;;13.40;71.50;;;;;;4197756;28;20076;-45
2021/03/11 04:51:13;;;;;;;0.00;0.00;;;13.40;71.60;;;;;;4197200;28;20063;-45
2021/03/11 04:53:37;;;;;;;0.00;0.00;;;13.50;71.60;;;;;;4197476;28;20055;-48
2021/03/11 04:55:59;;;;;;;0.17;0.17;;;13.40;71.80;;;;;;4197526;28;20058;-45
2021/03/11 04:58:21;;;;;;;0.20;0.20;;;13.40;71.90;;;;;;4196905;28;20097;-45
2021/03/11 05:00:46;;;;;;;0.00;0.00;;;13.40;71.80;;;;;;4197099;28;20067;-47
2021/03/11 05:03:10;;;;;;;0.00;0.00;;;13.40;71.90;;;;;;4197399;28;20046;-45
2021/03/11 05:05:35;;;;;;;0.00;0.00;;;13.40;72.10;;;;;;4197199;28;20131;-45
2021/03/11 05:07:55;;;;;;;0.00;0.00;;;13.40;72.10;;;;;;4196951;28;20490;-49
2021/03/11 05:10:17;;;;;;;0.00;0.00;;;13.40;72.20;;;;;;4197438;28;20060;-43
2021/03/11 05:12:37;;;;;;;0.00;0.00;;;13.40;72.30;;;;;;4197146;28;20543;-48
2021/03/11 05:14:58;;;;;;;0.00;0.00;;;13.40;72.20;;;;;;4180807;28;20055;-45
2021/03/11 05:17:20;;;;;;;0.00;0.00;;;13.40;72.20;;;;;;4180537;28;20052;-48
2021/03/11 05:19:41;;;;;;;0.10;0.10;;;13.40;72.10;;;;;;4188400;28;20307;-43
2021/03/11 05:22:02;;;;;;;0.10;0.10;;;13.40;72.20;;;;;;4197246;28;20059;-43
2021/03/11 05:24:23;;;;;;;0.10;0.10;;;13.40;72.40;;;;;;4197195;28;20592;-44
2021/03/11 05:26:47;;;;;;;0.30;0.30;;;13.40;72.30;;;;;;4196730;28;20099;-44
2021/03/11 05:29:10;;;;;;;0.22;0.22;;;13.40;72.50;;;;;;4180492;28;20049;-43
2021/03/11 05:31:31;;;;;;;0.00;0.00;;;13.40;72.40;;;;;;4180571;28;20052;-43
2021/03/11 05:33:54;;;;;;;0.00;0.00;;;13.40;72.50;;;;;;4180024;28;20143;-45
2021/03/11 05:36:16;;;;;;;0.00;0.00;;;13.30;72.50;;;;;;4180252;28;20156;-44
2021/03/11 05:38:37;;;;;;;0.00;0.00;;;13.40;72.60;;;;;;4181478;28;20508;-43
2021/03/11 05:40:58;;;;;;;0.10;0.10;;;13.40;72.50;;;;;;4196646;28;20519;-44
2021/03/11 05:43:21;;;;;;;0.35;0.35;;;13.40;72.60;;;;;;4196319;28;20063;-44
2021/03/11 05:45:42;;;;;;;0.00;0.00;;;13.40;72.80;;;;;;4196747;28;20048;-44
2021/03/11 05:48:05;;;;;;;0.28;0.28;;;13.40;72.80;;;;;;4196559;28;20572;-44
2021/03/11 05:50:28;;;;;;;0.00;0.00;;;13.40;72.60;;;;;;4196359;28;20044;-44
2021/03/11 05:52:51;;;;;;;0.15;0.15;;;13.40;72.80;;;;;;4196609;28;20056;-45
2021/03/11 05:55:12;;;;;;;0.00;0.00;;;13.40;72.80;;;;;;4196457;28;20056;-48
2021/03/11 05:57:38;;;;;;;0.00;0.00;;;13.40;72.80;;;;;;4196068;28;20129;-49
2021/03/11 05:59:59;;;;;;;0.00;0.00;;;13.40;72.80;;;;;;4196323;28;20052;-44
2021/03/11 06:02:23;;;;;;;2.90;1.00;;;13.40;73.00;;;;;;4196322;28;20063;-46
2021/03/11 06:04:44;;;;;;;0.10;0.10;;;13.40;73.00;;;;;;4196315;28;20445;-44
2021/03/11 06:07:07;;;;;;;0.00;0.00;;;13.40;73.10;;;;;;4196083;28;20415;-45
2021/03/11 06:09:28;;;;;;;0.00;0.00;;;13.30;73.90;;;;;;4196262;28;20063;-45
2021/03/11 06:11:50;;;;;;;;;;;13.30;73.20;;;;;;4196051;28;21540;-44
2021/03/11 06:14:15;;;;;;;0.00;0.00;;;13.40;73.20;;;;;;4196162;28;20333;-44
2021/03/11 06:16:38;;;;;;;0.00;0.00;;;13.40;73.10;;;;;;4195881;28;20056;-45
2021/03/11 06:18:59;;;;;;;0.00;0.00;;;13.40;73.30;;;;;;4196089;28;20044;-44
2021/03/11 06:21:20;;;;;;;0.00;0.00;;;13.30;73.30;;;;;;4195949;28;20052;-45
2021/03/11 06:23:42;;;;;;;0.00;0.00;;;13.40;73.30;;;;;;4196243;28;20053;-51
2021/03/11 06:26:03;;;;;;;0.00;0.00;;;13.40;73.30;;;;;;4194915;28;20126;-49
2021/03/11 06:28:52;;;;;;;0.00;0.00;;;13.30;73.40;;;;;;4196054;28;20040;-44
2021/03/11 06:31:17;;;;;;;0.47;0.47;;;13.40;73.60;;;;;;4160023;28;20139;-43
2021/03/11 06:33:38;;;;;;;4.30;2.53;;;13.40;74.40;;;;;;4195810;28;20079;-43
2021/03/11 06:36:11;;;;;;;0.00;0.00;;;13.40;74.90;;;;;;4196107;28;20828;-43
2021/03/11 06:38:32;;;;;;;0.10;0.10;;;13.40;74.60;;;;;;4191990;28;20553;-43
2021/03/11 06:40:54;;;;;;;0.10;0.10;;;13.40;74.40;;;;;;4185995;28;20105;-42
2021/03/11 06:43:15;;;;;;;0.00;0.00;;;13.70;74.10;;;;;;4194133;28;20482;-43
2021/03/11 06:45:36;;;;;;;0.00;0.00;;;14.60;71.10;;;;;;4195862;28;20053;-43
2021/03/11 06:48:18;;;;;;;0.10;0.10;;;15.50;67.00;;;;;;4194946;28;20056;-45
2021/03/11 06:50:39;;;;;;;0.00;0.00;;;16.50;63.30;;;;;;4187495;28;20059;-43
2021/03/11 06:53:02;;;;;;;0.00;0.00;;;17.40;60.20;;;;;;4195221;28;20060;-46
2021/03/11 06:55:23;;;;;;;1.08;0.95;;;18.10;58.00;;;;;;4189960;28;20079;-43
2021/03/11 06:57:45;;;;;;;0.00;0.00;;;18.90;56.30;;;;;;4194948;28;20049;-42
2021/03/11 07:00:18;;;;;;;0.00;0.00;;;19.50;55.40;;;;;;4195447;28;20064;-44
2021/03/11 07:02:49;;;;;;;0.10;0.10;;;19.90;54.00;;;;;;4195519;28;20067;-44
2021/03/11 07:05:16;;;;;;;0.00;0.00;;;20.20;53.40;;;;;;4195226;28;20066;-43
2021/03/11 07:07:37;;;;;;;0.28;0.28;;;20.40;52.80;;;;;;4195540;28;20092;-42
2021/03/11 07:09:58;;;;;;;0.00;0.00;;;20.30;52.90;;;;;;4195479;28;20041;-42
2021/03/11 07:12:20;;;;;;;;;;;20.00;53.50;;;;;;4196112;28;20121;-43
2021/03/11 07:14:42;;;;;;;;;;;19.70;54.20;;;;;;4195555;28;19920;-43
2021/03/11 07:17:19;;;;;;;0.00;0.00;;;19.50;54.90;;;;;;4195660;28;19964;-42
2021/03/11 07:19:40;;;;;;;0.10;0.10;;;19.10;55.80;;;;;;4178955;28;20134;-43
2021/03/11 07:22:01;;;;;;;0.10;0.10;;;18.80;56.50;;;;;;4186758;28;20056;-42
2021/03/11 07:24:33;;;;;;;0.40;0.30;;;18.50;57.20;;;;;;4199159;28;20126;-44
2021/03/11 07:26:57;;;;;;;0.00;0.00;;;18.20;57.90;;;;;;4198861;28;20515;-42
2021/03/11 07:29:19;;;;;;;0.05;0.05;;;18.00;58.60;;;;;;4198961;28;20529;-44
2021/03/11 07:31:41;;;;;;;0.30;0.30;;;17.70;59.30;;;;;;4198968;28;20052;-43
2021/03/11 07:34:02;;;;;;;1.52;1.45;;;17.50;59.90;;;;;;4198375;28;20534;-43
2021/03/11 07:36:23;;;;;;;0.00;0.00;;;17.30;60.50;;;;;;4197441;28;20044;-43
2021/03/11 07:38:45;;;;;;;0.00;0.00;;;17.20;61.20;;;;;;4198767;28;20080;-43
2021/03/11 07:41:08;;;;;;;0.00;0.00;;;17.00;61.70;;;;;;4198646;28;20177;-42
2021/03/11 07:43:31;;;;;;;0.03;0.03;;;16.90;62.20;;;;;;4198646;28;20052;-42
2021/03/11 07:45:54;;;;;;;0.28;0.28;;;17.00;62.00;;;;;;4198532;28;20795;-42
2021/03/11 07:48:17;;;;;;;0.00;0.00;;;17.20;61.90;;;;;;4198183;28;20044;-45
2021/03/11 07:50:41;;;;;;;0.00;0.00;;;17.30;61.40;;;;;;4198312;28;20511;-43
2021/03/11 07:53:04;;;;;;;0.00;0.00;;;17.40;60.90;;;;;;4198463;28;20109;-42
2021/03/11 07:55:27;;;;;;;2.85;1.27;;;17.50;60.90;;;;;;4198140;28;20057;-42
2021/03/11 07:57:49;;;;;;;0.00;0.00;;;17.40;61.30;;;;;;4198374;28;20057;-43
2021/03/11 08:00:13;;;;;;;0.10;0.10;;;17.30;61.60;;;;;;4198377;28;20075;-42
2021/03/11 08:02:36;;;;;;;0.55;0.55;;;17.30;61.90;;;;;;4198043;28;20059;-42
2021/03/11 08:05:12;;;;;;;0.00;0.00;;;17.30;61.80;;;;;;4198367;28;20418;-44
2021/03/11 08:07:33;;;;;;;1.63;1.02;;;17.40;62.60;;;;;;4198115;28;20522;-48
2021/03/11 08:09:56;;;;;;;0.10;0.10;;;17.40;62.60;;;;;;4197976;28;20048;-42
2021/03/11 08:12:37;;;;;;;0.10;0.10;;;17.30;62.50;;;;;;4198251;28;20057;-42
2021/03/11 08:14:59;;;;;;;2.63;0.52;;;17.20;62.50;;;;;;4198028;28;20564;-41
2021/03/11 08:17:43;;;;;;;0.43;0.43;;;17.30;62.60;;;;;;4197814;28;20550;-42
2021/03/11 08:20:05;;;;;;;0.40;0.40;;;17.40;62.20;;;;;;4197918;28;20049;-47
2021/03/11 08:23:03;;;;;;;0.05;0.05;;;17.40;61.90;;;;;;4198004;28;20177;-45
2021/03/11 08:25:46;;;;;;;0.00;0.00;;;17.50;61.50;;;;;;4162916;28;20053;-47
2021/03/11 08:28:37;;;;;;;0.03;0.03;;;17.50;61.30;;;;;;4198021;28;20135;-44
2021/03/11 08:31:02;;;;;;;0.43;0.43;;;17.40;61.30;;;;;;4197856;28;20052;-44
2021/03/11 08:33:50;;;;;;;0.00;0.00;;;17.20;61.80;;;;;;4197481;28;20052;-42
2021/03/11 08:36:33;;;;;;;0.00;0.00;;;17.10;62.20;;;;;;4182727;28;20084;-43
2021/03/11 08:38:55;;;;;;;0.03;0.03;;;17.00;62.60;;;;;;4197805;28;20056;-44
2021/03/11 08:41:28;;;;;;;0.03;0.03;;;16.90;62.90;;;;;;4197671;28;20052;-42
2021/03/11 08:43:50;;;;;;;0.73;0.73;;;16.90;63.00;;;;;;4198154;28;20048;-42
2021/03/11 08:46:14;;;;;;;0.00;0.00;;;17.00;62.70;;;;;;4197687;28;20048;-42
2021/03/11 08:48:46;;;;;;;0.73;0.73;;;17.10;62.50;;;;;;4197655;28;20049;-42
2021/03/11 08:51:11;;;;;;;0.30;0.30;;;17.30;61.90;;;;;;4197526;28;20048;-42
2021/03/11 08:53:45;;;;;;;0.35;0.35;;;17.40;61.60;;;;;;4197153;28;20052;-42
2021/03/11 08:56:37;;;;;;;0.63;0.43;;;17.40;61.50;;;;;;4197494;28;20048;-42
2021/03/11 08:59:00;;;;;;;0.38;0.38;;;17.50;61.30;;;;;;4197505;28;20095;-42
2021/03/11 09:01:34;;;;;;;0.05;0.05;;;17.50;61.10;;;;;;4197458;28;20097;-42
2021/03/11 09:03:56;;;;;;;0.32;0.32;;;17.50;61.20;;;;;;4197381;28;20473;-43
2021/03/11 09:06:20;;;;;;;0.73;0.73;;;17.50;61.50;;;;;;4197130;28;20052;-41
2021/03/11 09:08:51;;;;;;;0.35;0.35;;;17.50;61.30;;;;;;4197395;28;20063;-42
2021/03/11 09:11:15;;;;;;;0.63;0.63;;;17.70;60.90;;;;;;4197275;28;20048;-42
2021/03/11 09:13:40;;;;;;;2.03;1.85;;;17.80;60.50;;;;;;4180744;28;20064;-43
2021/03/11 09:16:01;;;;;;;1.38;1.33;;;17.80;60.40;;;;;;4180593;28;20056;-43
2021/03/11 09:18:24;;;;;;;1.25;1.25;;;17.90;60.20;;;;;;4180534;28;20124;-43
2021/03/11 09:20:53;;;;;;;1.25;1.02;;;17.90;60.70;;;;;;4180641;28;20076;-42
2021/03/11 09:23:14;;;;;;;0.00;0.00;;;18.00;59.50;;;;;;4184885;28;20819;-42
2021/03/11 09:25:36;;;;;;;0.40;0.40;;;18.00;59.50;;;;;;4195558;28;20045;-42
2021/03/11 09:27:58;;;;;;;0.32;0.32;;;17.90;59.60;;;;;;4194668;28;20048;-42
2021/03/11 09:30:23;;;;;;;1.83;1.63;;;17.80;59.90;;;;;;4195871;28;20515;-42
2021/03/11 09:32:44;;;;;;;3.35;1.55;;;17.70;60.20;;;;;;4196883;28;20057;-42
2021/03/11 09:35:06;;;;;;;;;;;17.80;60.20;;;;;;4180678;28;20061;-42
2021/03/11 09:37:51;;;;;;;0.10;0.10;;;17.70;60.10;;;;;;4180220;28;19927;-42
2021/03/11 09:40:21;;;;;;;0.83;0.83;;;17.70;60.10;;;;;;4195450;28;20499;-42
2021/03/11 09:43:04;;;;;;;0.00;0.00;;;17.60;60.40;;;;;;4196806;28;20298;-42
2021/03/11 09:45:33;;;;;;;1.70;1.60;;;17.70;60.10;;;;;;4195701;28;20049;-42
2021/03/11 09:48:03;;;;;;;0.10;0.10;;;17.80;60.00;;;;;;4196868;28;20052;-44
2021/03/11 09:50:27;;;;;;;0.50;0.50;;;17.80;59.80;;;;;;4195778;28;20114;-45
2021/03/11 09:52:57;;;;;;;0.30;0.30;;;17.90;59.80;;;;;;4196574;28;20068;-44
2021/03/11 09:55:18;;;;;;;0.00;0.00;;;17.90;59.60;;;;;;4196447;28;20064;-42
2021/03/11 09:57:40;;;;;;;0.00;0.00;;;17.90;59.40;;;;;;4196580;28;20110;-42
2021/03/11 10:00:02;;;;;;;0.10;0.10;;;17.90;59.50;;;;;;4196437;28;20052;-42
2021/03/11 10:02:45;;;;;;;0.10;0.10;;;17.90;59.50;;;;;;4196519;28;20052;-42
2021/03/11 10:05:08;;;;;;;5.25;0.88;;;17.80;59.70;;;;;;4195463;28;20048;-42
2021/03/11 10:07:28;;;;;;;0.98;0.98;;;17.80;59.80;;;;;;4196062;28;20102;-42
2021/03/11 10:09:52;;;;;;;0.10;0.10;;;17.70;60.00;;;;;;4196239;28;20503;-42
2021/03/11 10:12:13;;;;;;;0.20;0.20;;;17.60;60.20;;;;;;4196322;28;20056;-42
2021/03/11 10:14:35;;;;;;;1.10;1.10;;;17.50;60.60;;;;;;4196219;28;20044;-43
2021/03/11 10:16:58;;;;;;;0.00;0.00;;;17.50;60.60;;;;;;4196195;28;20049;-43
2021/03/11 10:19:21;;;;;;;0.00;0.00;;;17.50;60.40;;;;;;4196127;28;20060;-42
2021/03/11 10:21:47;;;;;;;0.00;0.00;;;17.40;60.60;;;;;;4196168;28;20083;-42
2021/03/11 10:24:09;;;;;;;0.00;0.00;;;17.30;60.90;;;;;;4195902;28;20079;-42
2021/03/11 10:26:36;;;;;;;0.05;0.05;;;17.30;61.10;;;;;;4185067;28;20060;-42
2021/03/11 10:29:04;;;;;;;0.00;0.00;;;17.40;60.70;;;;;;4196158;28;20131;-42
2021/03/11 10:31:27;;;;;;;6.47;1.20;;;17.60;60.50;;;;;;4195701;28;20056;-42
2021/03/11 10:34:00;;;;;;;0.65;0.65;;;17.70;60.10;;;;;;4196099;28;20052;-44
2021/03/11 10:36:22;;;;;;;0.32;0.32;;;17.80;59.90;;;;;;4196045;28;20110;-43
2021/03/11 10:38:43;;;;;;;0.17;0.17;;;17.80;59.60;;;;;;4195611;28;20139;-44
2021/03/11 10:41:13;;;;;;;0.60;0.60;;;17.80;59.60;;;;;;4179287;28;20136;-42
2021/03/11 10:43:34;;;;;;;0.43;0.43;;;17.80;60.60;;;;;;4191466;28;20048;-43
2021/03/11 10:45:55;;;;;;;0.20;0.20;;;17.90;60.60;;;;;;4195606;28;20106;-43
2021/03/11 10:48:16;;;;;;;2.92;1.75;;;17.90;59.60;;;;;;4195029;28;20056;-42
2021/03/11 10:50:43;;;;;;;0.95;0.95;;;17.90;59.70;;;;;;4194928;28;20078;-43
2021/03/11 10:53:07;;;;;;;1.88;1.08;;;17.80;60.00;;;;;;4195114;28;20044;-44
2021/03/11 10:55:34;;;;;;;0.50;0.50;;;17.80;60.50;;;;;;4194260;28;20048;-42
2021/03/11 10:57:55;;;;;;;0.73;0.73;;;17.70;60.60;;;;;;4195177;28;20090;-41
2021/03/11 11:00:25;;;;;;;0.00;0.00;;;17.60;60.90;;;;;;4195594;28;20105;-42
2021/03/11 11:02:52;;;;;;;2.72;0.93;;;17.60;61.30;;;;;;4195592;28;20491;-42
2021/03/11 11:05:14;;;;;;;8.05;0.38;;;17.50;61.80;;;;;;4187410;28;20052;-42
2021/03/11 11:07:41;;;;;;;0.47;0.30;;;17.30;62.40;;;;;;4195155;28;20113;-42
2021/03/11 11:10:05;;;;;;;0.03;0.03;;;17.30;63.40;;;;;;4195813;28;20834;-43
2021/03/11 11:12:28;;;;;;;0.00;0.00;;;17.40;62.30;;;;;;4195364;28;20049;-42
2021/03/11 11:14:50;;;;;;;0.10;0.10;;;17.40;62.10;;;;;;4195534;28;20133;-42
2021/03/11 11:17:13;;;;;;;1.75;1.65;;;17.50;62.00;;;;;;4195340;28;20087;-42
2021/03/11 11:19:36;;;;;;;0.32;0.32;;;17.50;62.00;;;;;;4195709;28;20048;-41
2021/03/11 11:21:56;;;;;;;7.25;0.93;;;17.40;62.10;;;;;;4195201;28;20060;-42
2021/03/11 11:24:17;;;;;;;1.67;1.35;;;17.40;62.40;;;;;;4194941;28;20044;-44
2021/03/11 11:26:39;;;;;;;0.00;0.00;;;17.30;62.60;;;;;;4178785;28;20118;-42
2021/03/11 11:29:04;;;;;;;0.32;0.32;;;17.10;63.00;;;;;;4193691;28;20079;-43
2021/03/11 11:31:30;;;;;;;0.30;0.30;;;17.00;63.30;;;;;;4195325;28;20056;-45
2021/03/11 11:33:52;;;;;;;2.05;0.98;;;17.00;63.60;;;;;;4195552;28;20056;-46
2021/03/11 11:36:12;;;;;;;0.00;0.00;;;17.10;63.20;;;;;;4195427;28;20531;-42
2021/03/11 11:38:33;;;;;;;0.25;0.25;;;17.30;62.80;;;;;;4195354;28;20056;-42
2021/03/11 11:40:54;;;;;;;0.00;0.00;;;17.40;62.30;;;;;;4194773;28;20144;-42
2021/03/11 11:43:17;;;;;;;1.20;1.10;;;17.40;62.10;;;;;;4193599;28;20044;-43
2021/03/11 11:45:38;;;;;;;0.03;0.03;;;17.40;62.40;;;;;;4194989;28;20072;-42
2021/03/11 11:47:59;;;;;;;1.70;1.52;;;17.30;62.60;;;;;;4194182;28;20052;-43
2021/03/11 11:50:31;;;;;;;0.63;0.63;;;17.20;62.70;;;;;;4195319;28;20515;-42
2021/03/11 11:52:52;;;;;;;0.00;0.00;;;17.20;63.20;;;;;;4195328;28;20060;-42
2021/03/11 11:55:14;;;;;;;0.75;0.75;;;17.20;63.50;;;;;;4194939;28;20468;-42
2021/03/11 11:57:34;;;;;;;0.00;0.00;;;17.20;63.50;;;;;;4195416;28;20406;-42
2021/03/11 11:59:57;;;;;;;0.00;0.00;;;17.30;63.40;;;;;;4195274;28;20519;-42
2021/03/11 12:02:18;;;;;;;0.00;0.00;;;17.40;63.00;;;;;;4195338;28;20063;-42
2021/03/11 12:04:39;;;;;;;0.00;0.00;;;17.50;63.00;;;;;;4195183;28;20493;-43
2021/03/11 12:07:00;;;;;;;0.00;0.00;;;17.50;62.80;;;;;;4195210;28;20084;-43
2021/03/11 12:09:24;;;;;;;0.00;0.00;;;17.50;62.80;;;;;;4196837;28;20450;-43
2021/03/11 12:11:48;;;;;;;0.00;0.00;;;17.50;63.00;;;;;;4198236;28;20080;-43
2021/03/11 12:14:09;;;;;;;0.63;0.63;;;17.40;63.10;;;;;;4198209;28;20045;-42
2021/03/11 12:16:31;;;;;;;;;;;17.40;63.60;;;;;;4198097;28;20078;-43
2021/03/11 12:18:52;;;;;;;0.40;0.40;;;17.30;63.70;;;;;;4198123;28;19924;-42
2021/03/11 12:21:14;;;;;;;18.30;2.00;;;17.30;63.70;;;;;;4198204;28;20052;-43
2021/03/11 12:23:38;;;;;;;0.00;0.00;;;17.40;63.50;;;;;;4197834;28;20409;-43
2021/03/11 12:26:00;;;;;;;0.00;0.00;;;17.60;63.10;;;;;;4198127;28;20499;-43
2021/03/11 12:28:21;;;;;;;0.20;0.20;;;17.60;62.80;;;;;;4197959;28;20056;-43
2021/03/11 12:30:42;;;;;;;0.10;0.10;;;17.70;62.50;;;;;;4197916;28;20059;-43
2021/03/11 12:33:04;;;;;;;1.17;1.10;;;17.70;62.50;;;;;;4197956;28;20494;-43